createdAt,value
2022-08-04T00:00:13.394Z,78.75
2022-08-04T00:03:07.645Z,78.95
2022-08-04T00:05:48.565Z,79.50
2022-08-04T00:08:20.960Z,79.91
2022-08-04T00:10:55.354Z,79.18
2022-08-04T00:13:27.492Z,78.79
2022-08-04T00:16:07.005Z,78.78
2022-08-04T00:18:50.743Z,78.73
2022-08-04T00:21:20.696Z,78.27
2022-08-04T00:24:10.347Z,79.04
2022-08-04T00:26:36.267Z,78.39
2022-08-04T00:29:02.722Z,78.53
2022-08-04T00:31:33.376Z,78.63
2022-08-04T00:34:16.559Z,79.21
2022-08-04T00:36:44.086Z,79.24
2022-08-04T00:39:15.789Z,79.10
2022-08-04T00:42:10.883Z,79.33
2022-08-04T00:45:02.158Z,79.16
2022-08-04T00:47:54.266Z,78.72
2022-08-04T00:50:46.148Z,78.54
2022-08-04T00:53:32.968Z,78.68
2022-08-04T00:56:25.008Z,78.78
2022-08-04T00:59:18.794Z,78.83
2022-08-04T01:01:58.807Z,78.87
2022-08-04T01:04:54.957Z,78.96
2022-08-04T01:07:42.396Z,78.57
2022-08-04T01:10:40.773Z,78.60
2022-08-04T01:13:22.260Z,78.74
2022-08-04T01:15:56.527Z,78.74
2022-08-04T01:18:55.561Z,79.11
2022-08-04T01:21:27.819Z,78.68
2022-08-04T01:24:24.722Z,78.64
2022-08-04T01:27:03.902Z,79.51
2022-08-04T01:29:58.967Z,81.39
2022-08-04T01:32:34.374Z,80.20
2022-08-04T01:35:03.553Z,80.65
2022-08-04T01:38:00.762Z,80.93
2022-08-04T01:40:28.033Z,81.30
2022-08-04T01:42:55.532Z,80.82
2022-08-04T01:45:24.964Z,80.63
2022-08-04T01:47:56.104Z,80.68
2022-08-04T01:50:23.656Z,80.74
2022-08-04T01:52:53.639Z,80.72
2022-08-04T01:55:21.013Z,81.01
2022-08-04T01:57:50.229Z,80.77
2022-08-04T02:00:20.988Z,80.50
2022-08-04T02:02:48.184Z,80.96
2022-08-04T02:05:17.485Z,80.72
2022-08-04T02:08:08.672Z,80.74
2022-08-04T02:11:01.234Z,80.85
2022-08-04T02:13:56.930Z,80.86
2022-08-04T02:16:52.457Z,80.55
2022-08-04T02:19:32.492Z,81.55
2022-08-04T02:22:09.939Z,82.40
2022-08-04T02:24:58.743Z,82.40
2022-08-04T02:27:59.780Z,82.33
2022-08-04T02:30:19.287Z,82.34
2022-08-04T02:32:48.671Z,81.98
2022-08-04T02:35:19.814Z,81.64
2022-08-04T02:37:49.164Z,81.48
2022-08-04T02:40:20.885Z,81.68
2022-08-04T02:42:47.937Z,81.68
2022-08-04T02:45:19.095Z,81.89
2022-08-04T02:48:23.615Z,81.82
2022-08-04T02:50:34.772Z,81.81
2022-08-04T02:53:04.125Z,82.29
2022-08-04T02:55:37.647Z,81.65
2022-08-04T02:58:05.143Z,81.88
2022-08-04T03:00:32.543Z,81.73
2022-08-04T03:03:05.051Z,82.18
2022-08-04T03:06:01.591Z,82.17
2022-08-04T03:08:46.976Z,82.27
2022-08-04T03:11:31.435Z,83.06
2022-08-04T03:14:16.572Z,82.95
2022-08-04T03:17:08.379Z,82.49
2022-08-04T03:20:15.388Z,82.77
2022-08-04T03:23:32.940Z,82.93
2022-08-04T03:26:28.415Z,82.41
2022-08-04T03:29:13.370Z,83.19
2022-08-04T03:32:09.416Z,82.51
2022-08-04T03:35:11.018Z,82.85
2022-08-04T03:37:49.142Z,82.96
2022-08-04T03:40:37.724Z,83.08
2022-08-04T03:43:57.114Z,83.14
2022-08-04T03:46:49.580Z,83.37
2022-08-04T03:49:53.855Z,84.10
2022-08-04T03:53:12.224Z,83.66
2022-08-04T03:55:44.280Z,83.39
2022-08-04T03:58:25.344Z,84.00
2022-08-04T04:01:21.233Z,83.55
2022-08-04T04:04:17.731Z,83.44
2022-08-04T04:07:01.378Z,83.38
2022-08-04T04:10:08.180Z,84.03
2022-08-04T04:12:46.712Z,83.80
2022-08-04T04:15:34.927Z,84.31
2022-08-04T04:18:23.101Z,83.87
2022-08-04T04:21:08.098Z,84.33
2022-08-04T04:23:55.698Z,84.73
2022-08-04T04:26:46.569Z,84.76
2022-08-04T04:29:18.409Z,84.09
2022-08-04T04:32:04.488Z,84.15
2022-08-04T04:34:33.504Z,84.65
2022-08-04T04:37:05.899Z,83.52
2022-08-04T04:39:39.371Z,83.57
2022-08-04T04:42:31.985Z,84.19
2022-08-04T04:45:47.154Z,83.94
2022-08-04T04:48:51.527Z,83.88
2022-08-04T04:51:42.204Z,83.24
2022-08-04T04:54:50.362Z,82.23
2022-08-04T04:57:54.265Z,81.46
2022-08-04T05:00:13.733Z,79.63
2022-08-04T05:03:01.108Z,78.01
2022-08-04T05:06:06.015Z,76.44
2022-08-04T05:08:50.008Z,74.77
2022-08-04T05:11:35.492Z,73.98
2022-08-04T05:14:37.969Z,72.18
2022-08-04T05:17:04.627Z,71.52
2022-08-04T05:20:03.009Z,71.55
2022-08-04T05:22:42.311Z,69.11
2022-08-04T05:25:18.444Z,68.31
2022-08-04T05:28:03.535Z,67.35
2022-08-04T05:30:32.834Z,66.62
2022-08-04T05:33:04.295Z,66.83
2022-08-04T05:35:50.537Z,65.10
2022-08-04T05:38:26.353Z,64.17
2022-08-04T05:40:54.724Z,64.54
2022-08-04T05:43:23.608Z,64.56
2022-08-04T05:45:51.760Z,64.79
2022-08-04T05:48:19.516Z,64.94
2022-08-04T05:50:47.372Z,63.76
2022-08-04T05:53:16.651Z,63.78
2022-08-04T05:55:57.129Z,61.97
2022-08-04T05:58:29.448Z,61.43
2022-08-04T06:00:56.820Z,60.32
2022-08-04T06:03:24.282Z,55.46
2022-08-04T06:05:51.911Z,50.08
2022-08-04T06:08:18.494Z,47.78
2022-08-04T06:10:46.410Z,45.71
2022-08-04T06:13:48.743Z,44.22
2022-08-04T06:16:06.567Z,41.00
2022-08-04T06:20:00.686Z,40.24
2022-08-04T06:21:24.903Z,39.50
2022-08-04T06:24:00.892Z,39.28
2022-08-04T06:26:33.806Z,38.65
2022-08-04T06:29:02.398Z,38.00
2022-08-04T06:32:31.491Z,37.71
2022-08-04T06:34:31.826Z,36.34
2022-08-04T06:36:59.144Z,36.62
2022-08-04T06:39:27.924Z,36.11
2022-08-04T06:42:17.411Z,34.82
2022-08-04T06:44:42.849Z,34.95
2022-08-04T06:47:10.753Z,33.74
2022-08-04T06:49:55.014Z,34.57
2022-08-04T06:52:28.621Z,34.11
2022-08-04T06:54:56.988Z,33.16
2022-08-04T06:57:27.212Z,33.04
2022-08-04T07:00:06.172Z,33.40
2022-08-04T07:02:38.780Z,32.27
2022-08-04T07:05:08.531Z,32.94
2022-08-04T07:07:56.509Z,33.29
2022-08-04T07:10:24.373Z,30.46
2022-08-04T07:12:52.962Z,29.28
2022-08-04T07:15:21.243Z,30.60
2022-08-04T07:17:49.702Z,32.20
2022-08-04T07:20:33.033Z,29.94
2022-08-04T07:23:07.470Z,29.15
2022-08-04T07:26:00.496Z,29.85
2022-08-04T07:28:25.057Z,28.99
2022-08-04T07:30:53.244Z,29.05
2022-08-04T07:33:20.846Z,27.16
2022-08-04T07:36:05.728Z,27.46
2022-08-04T07:38:48.746Z,27.03
2022-08-04T07:41:37.403Z,27.41
2022-08-04T07:44:04.634Z,26.71
2022-08-04T07:46:31.682Z,29.10
2022-08-04T07:49:00.591Z,27.40
2022-08-04T07:51:28.897Z,27.17
2022-08-04T07:53:57.104Z,27.22
2022-08-04T07:56:24.555Z,28.39
2022-08-04T07:58:50.970Z,27.20
2022-08-04T08:01:19.109Z,25.50
2022-08-04T08:03:46.755Z,25.22
2022-08-04T08:06:21.077Z,25.23
2022-08-04T08:09:12.133Z,26.39
2022-08-04T08:12:35.112Z,25.78
2022-08-04T08:14:28.827Z,25.61
2022-08-04T08:16:55.263Z,24.63
2022-08-04T08:19:21.833Z,23.49
2022-08-04T08:21:59.266Z,24.68
2022-08-04T08:24:28.164Z,21.97
2022-08-04T08:26:55.895Z,23.76
2022-08-04T08:29:23.184Z,22.92
2022-08-04T08:31:57.052Z,21.92
2022-08-04T08:34:27.423Z,22.70
2022-08-04T08:37:04.606Z,22.40
2022-08-04T08:39:40.519Z,23.82
2022-08-04T08:42:12.894Z,22.56
2022-08-04T08:44:48.682Z,22.69
2022-08-04T08:48:05.131Z,23.32
2022-08-04T08:50:35.312Z,22.79
2022-08-04T08:53:47.520Z,23.31
2022-08-04T08:56:21.047Z,22.40
2022-08-04T08:59:36.277Z,20.85
2022-08-04T09:02:25.814Z,21.62
2022-08-04T09:05:19.797Z,18.78
2022-08-04T09:08:12.843Z,19.71
2022-08-04T09:10:48.888Z,19.84
2022-08-04T09:13:27.600Z,21.05
2022-08-04T09:16:30.769Z,19.27
2022-08-04T09:19:37.646Z,20.23
2022-08-04T09:22:15.281Z,19.82
2022-08-04T09:24:55.120Z,18.91
2022-08-04T09:27:30.645Z,19.97
2022-08-04T09:30:02.977Z,19.27
2022-08-04T09:32:38.245Z,19.47
2022-08-04T09:35:19.915Z,17.84
2022-08-04T09:38:00.386Z,18.12
2022-08-04T09:40:53.717Z,17.32
2022-08-04T09:43:59.488Z,17.96
2022-08-04T09:46:34.344Z,18.65
2022-08-04T09:49:51.571Z,18.18
2022-08-04T09:52:31.592Z,17.46
2022-08-04T09:55:23.051Z,19.84
2022-08-04T09:58:17.101Z,20.11
2022-08-04T10:00:51.114Z,20.40
2022-08-04T10:03:20.815Z,18.62
2022-08-04T10:06:10.359Z,17.79
2022-08-04T10:08:57.186Z,17.19
2022-08-04T10:11:56.154Z,18.51
2022-08-04T10:14:47.883Z,17.67
2022-08-04T10:17:26.233Z,19.39
2022-08-04T10:20:04.392Z,20.48
2022-08-04T10:22:55.453Z,18.30
2022-08-04T10:26:05.853Z,18.57
2022-08-04T10:28:29.639Z,18.20
2022-08-04T10:31:00.837Z,18.38
2022-08-04T10:33:50.161Z,18.92
2022-08-04T10:36:22.133Z,19.88
2022-08-04T10:39:06.025Z,20.46
2022-08-04T10:41:49.879Z,18.23
2022-08-04T10:44:47.833Z,18.31
2022-08-04T10:47:18.530Z,19.25
2022-08-04T10:49:47.222Z,18.59
2022-08-04T10:52:44.004Z,18.78
2022-08-04T10:55:19.220Z,18.23
2022-08-04T10:58:09.729Z,18.48
2022-08-04T11:00:41.913Z,18.70
2022-08-04T11:03:17.564Z,18.17
2022-08-04T11:05:49.950Z,19.76
2022-08-04T11:08:35.497Z,19.52
2022-08-04T11:11:17.573Z,17.84
2022-08-04T11:14:04.151Z,18.58
2022-08-04T11:16:51.997Z,20.44
2022-08-04T11:19:48.814Z,17.75
2022-08-04T11:22:22.141Z,17.99
2022-08-04T11:24:58.666Z,18.33
2022-08-04T11:27:45.081Z,19.18
2022-08-04T11:30:13.794Z,18.33
2022-08-04T11:32:52.033Z,19.33
2022-08-04T11:35:57.693Z,19.36
2022-08-04T11:39:01.650Z,19.07
2022-08-04T11:41:36.811Z,18.77
2022-08-04T11:44:10.426Z,19.50
2022-08-04T11:46:52.185Z,19.01
2022-08-04T11:49:57.494Z,18.72
2022-08-04T11:52:26.862Z,20.06
2022-08-04T11:54:54.963Z,19.19
2022-08-04T11:57:35.296Z,21.02
2022-08-04T12:00:08.635Z,20.59
2022-08-04T12:03:12.355Z,20.23
2022-08-04T12:06:15.412Z,20.78
2022-08-04T12:09:12.900Z,20.44
2022-08-04T12:11:59.286Z,20.73
2022-08-04T12:14:41.181Z,19.25
2022-08-04T12:17:10.541Z,20.21
2022-08-04T12:20:03.858Z,20.97
2022-08-04T12:22:36.937Z,22.33
2022-08-04T12:25:14.329Z,21.34
2022-08-04T12:27:52.230Z,20.62
2022-08-04T12:30:58.445Z,21.95
2022-08-04T12:33:20.477Z,21.60
2022-08-04T12:36:05.298Z,21.38
2022-08-04T12:38:47.129Z,21.55
2022-08-04T12:41:18.048Z,22.07
2022-08-04T12:43:47.240Z,21.71
2022-08-04T12:46:22.169Z,19.99
2022-08-04T12:48:50.249Z,21.19
2022-08-04T12:52:06.469Z,22.86
2022-08-04T12:54:06.875Z,23.34
2022-08-04T12:56:34.012Z,23.04
2022-08-04T12:59:04.025Z,22.00
2022-08-04T13:02:10.270Z,21.25
2022-08-04T13:04:21.704Z,21.59
2022-08-04T13:07:02.054Z,21.74
2022-08-04T13:09:34.010Z,23.99
2022-08-04T13:12:11.352Z,25.75
2022-08-04T13:14:45.061Z,24.33
2022-08-04T13:17:12.267Z,23.88
2022-08-04T13:19:41.358Z,23.35
2022-08-04T13:22:08.753Z,22.62
2022-08-04T13:25:17.893Z,23.48
2022-08-04T13:27:25.526Z,25.52
2022-08-04T13:29:58.836Z,24.13
2022-08-04T13:32:28.752Z,23.58
2022-08-04T13:34:56.359Z,22.51
2022-08-04T13:37:31.841Z,21.96
2022-08-04T13:39:59.899Z,22.38
2022-08-04T13:42:27.389Z,21.64
2022-08-04T13:44:59.838Z,21.78
2022-08-04T13:47:34.065Z,22.01
2022-08-04T13:50:11.805Z,22.07
2022-08-04T13:52:40.278Z,22.13
2022-08-04T13:55:07.417Z,22.23
2022-08-04T13:57:42.976Z,22.59
2022-08-04T14:00:10.915Z,23.51
2022-08-04T14:03:02.438Z,23.80
2022-08-04T14:05:35.366Z,21.99
2022-08-04T14:08:27.360Z,22.51
2022-08-04T14:10:57.643Z,23.60
2022-08-04T14:13:41.281Z,23.15
2022-08-04T14:16:20.518Z,22.97
2022-08-04T14:18:47.654Z,23.32
2022-08-04T14:21:16.625Z,22.65
2022-08-04T14:23:47.426Z,22.75
2022-08-04T14:26:35.318Z,23.02
2022-08-04T14:29:26.883Z,22.95
2022-08-04T14:32:01.178Z,23.46
2022-08-04T14:34:29.962Z,23.57
2022-08-04T14:37:16.919Z,23.02
2022-08-04T14:40:19.185Z,24.31
2022-08-04T14:42:41.722Z,22.72
2022-08-04T14:45:08.737Z,23.68
2022-08-04T14:47:52.434Z,23.65
2022-08-04T14:50:20.213Z,22.92
2022-08-04T14:52:46.678Z,22.68
2022-08-04T14:55:24.242Z,22.86
2022-08-04T14:58:35.690Z,23.57
2022-08-04T15:00:38.326Z,24.40
2022-08-04T15:03:10.237Z,23.66
2022-08-04T15:05:55.021Z,23.73
2022-08-04T15:08:31.439Z,22.65
2022-08-04T15:11:02.161Z,23.21
2022-08-04T15:13:29.774Z,22.85
2022-08-04T15:16:06.667Z,22.86
2022-08-04T15:18:36.150Z,22.81
2022-08-04T15:21:04.640Z,24.21
2022-08-04T15:23:31.758Z,22.47
2022-08-04T15:26:09.894Z,22.47
2022-08-04T15:28:38.345Z,22.91
2022-08-04T15:31:10.518Z,23.51
2022-08-04T15:33:55.040Z,23.25
2022-08-04T15:36:31.554Z,23.59
2022-08-04T15:39:16.618Z,23.49
2022-08-04T15:42:01.877Z,23.83
2022-08-04T15:44:58.568Z,25.32
2022-08-04T15:47:25.543Z,23.47
2022-08-04T15:50:10.286Z,24.29
2022-08-04T15:53:13.139Z,24.01
2022-08-04T15:55:42.050Z,24.90
2022-08-04T15:58:11.326Z,25.89
2022-08-04T16:00:49.756Z,25.48
2022-08-04T16:04:00.334Z,25.15
2022-08-04T16:06:20.994Z,24.87
2022-08-04T16:08:47.351Z,26.43
2022-08-04T16:11:30.938Z,25.05
2022-08-04T16:13:59.590Z,25.18
2022-08-04T16:16:34.145Z,25.52
2022-08-04T16:19:05.371Z,26.27
2022-08-04T16:21:33.963Z,26.89
2022-08-04T16:24:17.953Z,25.66
2022-08-04T16:26:54.821Z,25.53
2022-08-04T16:29:22.681Z,26.84
2022-08-04T16:32:10.304Z,25.39
2022-08-04T16:34:58.780Z,26.16
2022-08-04T16:37:33.125Z,25.97
2022-08-04T16:40:34.620Z,26.05
2022-08-04T16:43:09.820Z,26.69
2022-08-04T16:45:49.231Z,26.73
2022-08-04T16:48:17.800Z,27.43
2022-08-04T16:50:56.310Z,27.85
2022-08-04T16:53:58.687Z,27.57
2022-08-04T16:56:18.765Z,27.32
2022-08-04T16:58:54.192Z,27.25
2022-08-04T17:01:32.714Z,27.63
2022-08-04T17:04:05.077Z,27.59
2022-08-04T17:06:40.511Z,29.29
2022-08-04T17:09:10.853Z,30.04
2022-08-04T17:11:37.479Z,29.50
2022-08-04T17:14:05.855Z,30.99
2022-08-04T17:16:38.183Z,29.55
2022-08-04T17:19:06.284Z,30.84
2022-08-04T17:21:34.529Z,29.26
2022-08-04T17:24:15.446Z,33.69
2022-08-04T17:26:54.138Z,29.68
2022-08-04T17:29:21.878Z,29.62
2022-08-04T17:31:48.338Z,29.60
2022-08-04T17:34:19.221Z,29.91
2022-08-04T17:36:47.597Z,30.78
2022-08-04T17:39:17.721Z,34.69
2022-08-04T17:41:48.946Z,30.84
2022-08-04T17:44:16.602Z,34.16
2022-08-04T17:46:48.123Z,31.99
2022-08-04T17:49:18.086Z,34.39
2022-08-04T17:52:06.910Z,37.90
2022-08-04T17:54:39.949Z,37.86
2022-08-04T17:57:27.242Z,38.19
2022-08-04T17:59:58.801Z,39.00
2022-08-04T18:05:54.030Z,39.28
2022-08-04T18:08:34.730Z,39.59
2022-08-04T18:11:01.693Z,40.87
2022-08-04T18:13:28.472Z,41.41
2022-08-04T18:16:05.355Z,41.77
2022-08-04T18:18:32.160Z,42.17
2022-08-04T18:21:03.356Z,43.13
2022-08-04T18:23:32.579Z,44.61
2022-08-04T18:26:01.996Z,46.15
2022-08-04T18:28:29.233Z,46.36
2022-08-04T18:30:59.464Z,45.86
2022-08-04T18:33:40.256Z,46.27
2022-08-04T18:36:33.076Z,46.89
2022-08-04T18:39:13.636Z,47.96
2022-08-04T18:42:01.444Z,48.11
2022-08-04T18:44:32.089Z,49.45
2022-08-04T18:47:19.459Z,50.34
2022-08-04T18:51:00.984Z,50.26
2022-08-04T18:52:33.299Z,50.32
2022-08-04T18:55:01.569Z,50.09
2022-08-04T18:57:59.878Z,51.06
2022-08-04T19:00:17.604Z,50.91
2022-08-04T19:02:46.669Z,52.14
2022-08-04T19:05:17.489Z,53.00
2022-08-04T19:08:01.815Z,53.15
2022-08-04T19:10:29.082Z,52.95
2022-08-04T19:12:56.024Z,57.61
2022-08-04T19:15:22.512Z,57.02
2022-08-04T19:18:01.102Z,65.11
2022-08-04T19:20:29.325Z,58.93
2022-08-04T19:24:10.929Z,59.60
2022-08-04T19:26:02.754Z,62.46
2022-08-04T19:28:36.214Z,61.70
2022-08-04T19:31:08.427Z,62.13
2022-08-04T19:33:58.970Z,63.15
2022-08-04T19:36:28.345Z,61.04
2022-08-04T19:38:57.184Z,61.73
2022-08-04T19:41:26.784Z,61.88
2022-08-04T19:43:53.913Z,63.50
2022-08-04T19:46:21.314Z,66.74
2022-08-04T19:48:59.350Z,66.66
2022-08-04T19:51:30.541Z,65.60
2022-08-04T19:54:04.296Z,69.51
2022-08-04T19:56:40.858Z,67.19
2022-08-04T19:59:08.584Z,67.28
2022-08-04T20:01:43.740Z,66.72
2022-08-04T20:04:11.503Z,66.06
2022-08-04T20:06:39.127Z,67.89
2022-08-04T20:09:26.106Z,68.18
2022-08-04T20:11:52.152Z,68.63
2022-08-04T20:14:19.572Z,69.86
2022-08-04T20:16:58.679Z,69.80
2022-08-04T20:19:25.633Z,69.04
2022-08-04T20:21:56.385Z,69.10
2022-08-04T20:24:40.482Z,68.71
2022-08-04T20:27:15.234Z,69.84
2022-08-04T20:30:00.907Z,68.47
2022-08-04T20:32:27.991Z,68.88
2022-08-04T20:34:55.889Z,68.41
2022-08-04T20:37:24.647Z,67.62
2022-08-04T20:39:58.678Z,70.49
2022-08-04T20:42:33.756Z,59.16
2022-08-04T20:45:01.447Z,58.63
2022-08-04T20:47:35.175Z,59.05
2022-08-04T20:50:08.996Z,56.93
2022-08-04T20:52:37.097Z,56.04
2022-08-04T20:55:05.790Z,55.13
2022-08-04T20:57:47.922Z,56.23
2022-08-04T21:00:17.570Z,57.16
2022-08-04T21:02:53.183Z,57.67
2022-08-04T21:05:20.228Z,57.02
2022-08-04T21:07:49.020Z,56.53
2022-08-04T21:10:15.823Z,56.88
2022-08-04T21:12:43.578Z,58.08
2022-08-04T21:15:24.766Z,57.28
2022-08-04T21:17:59.104Z,56.82
2022-08-04T21:20:32.419Z,57.54
2022-08-04T21:23:01.974Z,56.61
2022-08-04T21:25:29.421Z,57.45
2022-08-04T21:27:58.886Z,58.32
2022-08-04T21:30:30.271Z,58.35
2022-08-04T21:32:56.693Z,60.39
2022-08-04T21:35:30.805Z,60.14
2022-08-04T21:38:13.979Z,59.94
2022-08-04T21:40:53.512Z,60.24
2022-08-04T21:43:21.049Z,59.62
2022-08-04T21:45:50.292Z,60.89
2022-08-04T21:48:17.072Z,60.75
2022-08-04T21:50:43.873Z,60.29
2022-08-04T21:53:16.812Z,61.36
2022-08-04T21:56:05.598Z,61.49
2022-08-04T21:58:33.047Z,62.11
2022-08-04T22:00:59.486Z,62.31
2022-08-04T22:03:52.336Z,62.26
2022-08-04T22:06:17.485Z,61.93
2022-08-04T22:08:49.363Z,62.99
2022-08-04T22:11:50.790Z,63.85
2022-08-04T22:14:29.563Z,63.71
2022-08-04T22:17:01.873Z,63.55
2022-08-04T22:19:49.752Z,63.27
2022-08-04T22:22:25.217Z,63.35
2022-08-04T22:24:53.630Z,64.71
2022-08-04T22:27:38.807Z,65.93
2022-08-04T22:30:13.331Z,66.26
2022-08-04T22:32:44.205Z,67.69
2022-08-04T22:35:43.928Z,67.19
2022-08-04T22:38:06.637Z,67.14
2022-08-04T22:40:44.073Z,67.18
2022-08-04T22:43:32.240Z,67.33
2022-08-04T22:46:02.067Z,68.39
2022-08-04T22:48:32.172Z,68.26
2022-08-04T22:50:59.184Z,66.85
2022-08-04T22:53:25.603Z,68.35
2022-08-04T22:56:07.359Z,69.41
2022-08-04T22:58:45.426Z,68.63
2022-08-04T23:01:18.036Z,65.24
2022-08-04T23:03:51.247Z,62.98
2022-08-04T23:06:24.520Z,60.78
2022-08-04T23:08:51.386Z,60.33
2022-08-04T23:11:17.928Z,60.76
2022-08-04T23:13:45.338Z,61.32
2022-08-04T23:16:12.290Z,62.35
2022-08-04T23:18:40.230Z,64.90
2022-08-04T23:21:08.994Z,63.52
2022-08-04T23:23:36.556Z,61.91
2022-08-04T23:26:12.996Z,62.93
2022-08-04T23:28:40.117Z,63.22
2022-08-04T23:31:07.043Z,63.60
2022-08-04T23:33:51.556Z,63.03
2022-08-04T23:36:19.403Z,62.08
2022-08-04T23:38:59.466Z,62.55
2022-08-04T23:41:26.633Z,63.09
2022-08-04T23:44:13.170Z,62.91
2022-08-04T23:46:49.760Z,63.74
2022-08-04T23:49:19.679Z,62.96
2022-08-04T23:51:46.055Z,62.11
2022-08-04T23:54:16.108Z,62.14
2022-08-04T23:56:52.054Z,62.33
2022-08-04T23:59:52.803Z,63.25
